This is the latest recevied weather packets stored in our database for station/object YB2VNE-13. If no packets are shown the sender has not sent any weather packets the latest 10 day(s).
| Time | Temp. | Humidity | Pressure | Rain* | Wind** | Luminosity | Snow |
|---|---|---|---|---|---|---|---|
| 1778062129 | 30° C | 75% | 992 hPa | - | - | 0 W/m² | - |
| 1778061819 | 30.56° C | 75% | 992 hPa | - | - | 0 W/m² | - |
| 1778061509 | 30° C | 76% | 992 hPa | - | - | 0 W/m² | - |
| 1778061199 | 30° C | 76% | 992 hPa | - | - | 0 W/m² | - |
| 1778060889 | 30.56° C | 75% | 992 hPa | - | - | 0 W/m² | - |
| 1778060579 | 30.56° C | 74% | 992 hPa | - | - | 0 W/m² | - |
| 1778060269 | 30.56° C | 74% | 992 hPa | - | - | 0 W/m² | - |
| 1778059959 | 30.56° C | 75% | 992 hPa | - | - | 0 W/m² | - |
| 1778059649 | 30.56° C | 76% | 992 hPa | - | - | 0 W/m² | - |
| 1778059339 | 30.56° C | 75% | 992 hPa | - | - | 0 W/m² | - |
| 1778059030 | 30.56° C | 75% | 992 hPa | - | - | 0 W/m² | - |
| 1778058719 | 30.56° C | 74% | 992 hPa | - | - | 0 W/m² | - |
| 1778058409 | 30.56° C | 72% | 992 hPa | - | - | 0 W/m² | - |
| 1778058099 | 30.56° C | 72% | 992 hPa | - | - | 0 W/m² | - |
| 1778057789 | 30.56° C | 72% | 991 hPa | - | - | 0 W/m² | - |
| 1778057479 | 30.56° C | 73% | 991 hPa | - | - | 0 W/m² | - |
| 1778057169 | 31.11° C | 70% | 991 hPa | - | - | 0 W/m² | - |
| 1778056859 | 31.11° C | 72% | 991 hPa | - | - | 0 W/m² | - |
| 1778056549 | 31.11° C | 73% | 991 hPa | - | - | 0 W/m² | - |
| 1778056239 | 31.11° C | 72% | 991 hPa | - | - | 0 W/m² | - |
| 1778055929 | 31.11° C | 68% | 991 hPa | - | - | 0 W/m² | - |
| 1778055619 | 31.67° C | 58% | 991 hPa | - | - | 0 W/m² | - |
| 1778055309 | 31.67° C | 60% | 991 hPa | - | - | 0 W/m² | - |
| 1778055003 | 31.11° C | 61% | 991 hPa | - | - | 0 W/m² | - |
| 1778054689 | 31.67° C | 60% | 991 hPa | - | - | 0 W/m² | - |
* Rain since midnight (hover to see other rain measurements)
** Current wind speed in m/s (hover to see current wind gust speed)